Lode — SFC9613 — position and weather

sailwx.info

Track history (hours):
 
Tides and Currents Weather Stations Pressure Air Temp Water Temp Dewpoint Dewpoint Depression Visibility Wind Speed Wind Dir Waves Ship Positions

Lode

Last reported at 2014-Jul-09 07:23 UTC. Time now 2014-Aug-28 03:24 UTC.
Position N 58°41' E 016°19'.
Warning: this ship's position is 49 days out of date.

Length 11 m.

Type: Dredging. MMSI: 265680440.

Date/timePositionNaut miles runAvg speedWind from/ knotsBaromVisibWave heightAir tempDewpointWater temp
2014-Jul-09 07:23N 58°41' E 016°19'14838.9
2014-Jul-09 03:33N 57°44' E 011°59'1 0.8
2014-Jul-09 02:33N 57°43' E 011°58'0 0.0
2014-Jul-09 01:33N 57°43' E 011°58'0 0.0
2014-Jul-09 00:33N 57°43' E 011°58'0 0.0
2014-Jul-08 23:33N 57°43' E 011°58'0 0.0
2014-Jul-08 22:33N 57°43' E 011°58'0 0.0
2014-Jul-08 21:33N 57°43' E 011°58'0 0.0
2014-Jul-08 20:30N 57°43' E 011°58'0 0.0
2014-Jul-08 19:33N 57°43' E 011°58'0 0.0
2014-Jul-08 18:33N 57°43' E 011°58'0 0.1
2014-Jul-08 17:33N 57°43' E 011°57'0 0.0
2014-Jul-08 16:33N 57°43' E 011°57'1 0.8
2014-Jul-08 15:33N 57°42' E 011°57'0 0.2
2014-Jul-08 14:33N 57°42' E 011°56'9 9.1
2014-Jul-08 13:33N 57°40' E 011°40'2 1.8
2014-Jul-08 12:33N 57°39' E 011°41'9 8.9
2014-Jul-08 11:34N 57°42' E 011°57'0 0.0
2014-Jul-08 10:34N 57°42' E 011°57'0 0.0
2014-Jul-08 09:34N 57°42' E 011°57'0 0.0
2014-Jul-08 08:31N 57°42' E 011°57'0 0.0
2014-Jul-08 07:34N 57°42' E 011°57'0 0.0
2014-Jul-08 06:31N 57°42' E 011°57'0 0.0
2014-Jul-08 05:31N 57°42' E 011°57'0 0.0
2014-Jul-08 04:31N 57°42' E 011°57'0 0.0
2014-Jul-08 03:28N 57°42' E 011°57'0 0.0
2014-Jul-08 02:28N 57°42' E 011°57'0 0.0
2014-Jul-08 01:31N 57°42' E 011°57'0 0.0
2014-Jul-08 00:31N 57°42' E 011°57'0 0.0
2014-Jul-07 23:31N 57°42' E 011°57'0 0.0
2014-Jul-07 22:25N 57°42' E 011°57'0 0.0
2014-Jul-07 21:31N 57°42' E 011°57'0 0.0
2014-Jul-07 20:31N 57°42' E 011°57'0 0.0
2014-Jul-07 19:31N 57°42' E 011°57'0 0.0
2014-Jul-07 18:31N 57°42' E 011°57'0 0.0
2014-Jul-07 17:31N 57°42' E 011°57'0 0.0
2014-Jul-07 16:31N 57°42' E 011°57'0 0.0
2014-Jul-07 15:31N 57°42' E 011°57'0 0.0
2014-Jul-07 14:31N 57°42' E 011°57'0 0.0
2014-Jul-07 13:31N 57°42' E 011°57'0 0.0
2014-Jul-07 12:31N 57°42' E 011°57'0 0.0
2014-Jul-07 11:33N 57°42' E 011°57'5 5.5
2014-Jul-07 10:33N 57°41' E 011°47'3 3.2
2014-Jul-07 09:33N 57°41' E 011°41'5 4.9
2014-Jul-07 08:33N 57°41' E 011°50'4 3.6
2014-Jul-07 07:32N 57°42' E 011°57'0 0.0
2014-Jul-07 06:32N 57°42' E 011°57'0 0.0
2014-Jul-07 05:32N 57°42' E 011°57'0 0.0
2014-Jul-07 04:32N 57°42' E 011°57'0 0.0
2014-Jul-07 03:29N 57°42' E 011°57'0 0.0
2014-Jul-07 02:32N 57°42' E 011°57'0 0.0
2014-Jul-07 01:32N 57°42' E 011°57'0 0.0
2014-Jul-07 00:32N 57°42' E 011°57'0 0.0
2014-Jul-06 23:29N 57°42' E 011°57'0 0.0
2014-Jul-06 22:32N 57°42' E 011°57'0 0.0
2014-Jul-06 21:32N 57°42' E 011°57'0 0.0
2014-Jul-06 20:32N 57°42' E 011°57'0 0.0
2014-Jul-06 19:32N 57°42' E 011°57'0 0.0
2014-Jul-06 18:32N 57°42' E 011°57'0 0.0
2014-Jul-06 17:32N 57°42' E 011°57'0 0.0
2014-Jul-06 16:32N 57°42' E 011°57'0 0.0
2014-Jul-06 15:26N 57°42' E 011°57'0 0.0
2014-Jul-06 14:32N 57°42' E 011°57'0 0.0
2014-Jul-06 13:32N 57°42' E 011°57'0 0.0
2014-Jul-06 12:32N 57°42' E 011°57'0 0.0
2014-Jul-06 11:32N 57°42' E 011°57'0 0.0
2014-Jul-06 10:32N 57°42' E 011°57'0 0.0
2014-Jul-06 09:32N 57°42' E 011°57'0 0.0
2014-Jul-06 08:32N 57°42' E 011°57'0 0.0
2014-Jul-06 07:32N 57°42' E 011°57'0 0.0
2014-Jul-06 06:32N 57°42' E 011°57'0 0.0
2014-Jul-06 05:32N 57°42' E 011°57'0 0.0
2014-Jul-06 04:32N 57°42' E 011°57'0 0.0
2014-Jul-06 03:32N 57°42' E 011°57'0 0.0
2014-Jul-06 02:32N 57°42' E 011°57'0 0.0
2014-Jul-06 01:32N 57°42' E 011°57'0 0.0
2014-Jul-06 00:32N 57°42' E 011°57'0 0.0
2014-Jul-05 23:32N 57°42' E 011°57'0 0.0
2014-Jul-05 22:23N 57°42' E 011°57'0 0.0
2014-Jul-05 21:32N 57°42' E 011°57'0 0.0
2014-Jul-05 20:32N 57°42' E 011°57'0 0.0
2014-Jul-05 19:32N 57°42' E 011°57'0 0.0
2014-Jul-05 18:32N 57°42' E 011°57'0 0.0
2014-Jul-05 17:32N 57°42' E 011°57'0 0.0
2014-Jul-05 16:20N 57°42' E 011°57'0 0.0
2014-Jul-05 15:29N 57°42' E 011°57'0 0.0
2014-Jul-05 14:32N 57°42' E 011°57'0 0.0
2014-Jul-05 13:32N 57°42' E 011°57'0 0.0
2014-Jul-05 12:32N 57°42' E 011°57'0 0.0
2014-Jul-05 11:32N 57°42' E 011°57'0 0.0
2014-Jul-05 10:32N 57°42' E 011°57'0 0.0
2014-Jul-05 09:32N 57°42' E 011°57'0 0.0
2014-Jul-05 08:32N 57°42' E 011°57'0 0.0
2014-Jul-05 07:32N 57°42' E 011°57'0 0.0
2014-Jul-05 06:32N 57°42' E 011°57'0 0.0
2014-Jul-05 05:29N 57°42' E 011°57'0 0.0
2014-Jul-05 04:32N 57°42' E 011°57'0 0.0
2014-Jul-05 03:29N 57°42' E 011°57'0 0.0
2014-Jul-05 02:32N 57°42' E 011°57'0 0.0
2014-Jul-05 01:32N 57°42' E 011°57'0 0.0
2014-Jul-05 00:32N 57°42' E 011°57'0 0.0
2014-Jul-04 23:32N 57°42' E 011°57'0 0.0
2014-Jul-04 22:32N 57°42' E 011°57'0 0.0
2014-Jul-04 21:32N 57°42' E 011°57'0 0.0
2014-Jul-04 20:23N 57°42' E 011°57'0 0.0
2014-Jul-04 19:32N 57°42' E 011°57'0 0.0
2014-Jul-04 18:32N 57°42' E 011°57'0 0.0
2014-Jul-04 17:32N 57°42' E 011°57'0 0.0
2014-Jul-04 16:32N 57°42' E 011°57'0 0.0
2014-Jul-04 15:32N 57°42' E 011°57'0 0.0
2014-Jul-04 14:33N 57°42' E 011°57'0 0.0
2014-Jul-04 13:33N 57°42' E 011°57'0 0.0
2014-Jul-04 12:33N 57°42' E 011°57'0 0.0
2014-Jul-04 11:33N 57°42' E 011°57'0 0.0
2014-Jul-04 10:33N 57°42' E 011°57'0 0.0
2014-Jul-04 09:30N 57°42' E 011°57'0 0.0
2014-Jul-04 08:30N 57°42' E 011°57'0 0.0
2014-Jul-04 07:33N 57°42' E 011°57'0 0.0
2014-Jul-04 06:33N 57°42' E 011°57'0 0.0
2014-Jul-04 05:33N 57°42' E 011°57'0 0.0
2014-Jul-04 04:33N 57°42' E 011°57'0 0.0
2014-Jul-04 03:30N 57°42' E 011°57'0 0.0
2014-Jul-04 02:33N 57°42' E 011°57'0 0.0
2014-Jul-04 01:33N 57°42' E 011°57'0 0.0
2014-Jul-04 00:33N 57°42' E 011°57'0 0.0
2014-Jul-03 23:33N 57°42' E 011°57'0 0.0
2014-Jul-03 22:30N 57°42' E 011°57'0 0.0
2014-Jul-03 21:33N 57°42' E 011°57'0 0.0
2014-Jul-03 20:30N 57°42' E 011°57'0 0.0
2014-Jul-03 19:33N 57°42' E 011°57'0 0.0
2014-Jul-03 18:33N 57°42' E 011°57'0 0.0
2014-Jul-03 17:33N 57°42' E 011°57'0 0.0
2014-Jul-03 16:33N 57°42' E 011°57'0 0.0
2014-Jul-03 15:33N 57°42' E 011°57'0 0.0
2014-Jul-03 14:33N 57°42' E 011°57'0 0.0
2014-Jul-03 13:33N 57°42' E 011°57'0 0.0
2014-Jul-03 12:33N 57°42' E 011°57'0 0.2
2014-Jul-03 11:33N 57°42' E 011°57'1 0.8
2014-Jul-03 10:33N 57°43' E 011°58'1 0.8
2014-Jul-03 09:32N 57°42' E 011°57'0 0.0
2014-Jul-03 08:32N 57°42' E 011°57'0 0.0
2014-Jul-03 07:32N 57°42' E 011°57'0 0.0
2014-Jul-03 06:32N 57°42' E 011°57'0 0.0
2014-Jul-03 05:32N 57°42' E 011°57'0 0.0
2014-Jul-03 04:32N 57°42' E 011°57'0 0.0
2014-Jul-03 03:32N 57°42' E 011°57'0 0.0
2014-Jul-03 02:32N 57°42' E 011°57'0 0.0
2014-Jul-03 01:32N 57°42' E 011°57'0 0.0
2014-Jul-03 00:29N 57°42' E 011°57'0 0.0
2014-Jul-02 23:29N 57°42' E 011°57'0 0.0
2014-Jul-02 22:32N 57°42' E 011°57'0 0.0
2014-Jul-02 21:32N 57°42' E 011°57'0 0.0
2014-Jul-02 20:32N 57°42' E 011°57'0 0.0
2014-Jul-02 19:32N 57°42' E 011°57'0 0.0
2014-Jul-02 18:32N 57°42' E 011°57'0 0.0
2014-Jul-02 17:32N 57°42' E 011°57'0 0.0
2014-Jul-02 16:32N 57°42' E 011°57'0 0.0
2014-Jul-02 15:31N 57°42' E 011°57'0 0.0
2014-Jul-02 14:28N 57°42' E 011°57'0 0.0
2014-Jul-02 13:31N 57°42' E 011°57'0 0.0
2014-Jul-02 12:22N 57°42' E 011°57'0 0.0
2014-Jul-02 11:31N 57°42' E 011°57'0 0.0
2014-Jul-02 10:31N 57°42' E 011°57'0 0.0
2014-Jul-02 09:28N 57°42' E 011°57'0 0.0
2014-Jul-02 08:31N 57°42' E 011°57'0 0.0
2014-Jul-02 07:31N 57°42' E 011°57'0 0.0
2014-Jul-02 06:31N 57°42' E 011°57'0 0.0
2014-Jul-02 05:31N 57°42' E 011°57'0 0.0
2014-Jul-02 04:31N 57°42' E 011°57'0 0.0
2014-Jul-02 03:31N 57°42' E 011°57'0 0.0
2014-Jul-02 02:31N 57°42' E 011°57'0 0.0
2014-Jul-02 01:31N 57°42' E 011°57'0 0.0
2014-Jul-02 00:31N 57°42' E 011°57'0 0.0
2014-Jul-01 23:31N 57°42' E 011°57'0 0.0
2014-Jul-01 22:31N 57°42' E 011°57'0 0.0
2014-Jul-01 21:31N 57°42' E 011°57'0 0.0
2014-Jul-01 20:31N 57°42' E 011°57'0 0.0
2014-Jul-01 19:28N 57°42' E 011°57'0 0.0
2014-Jul-01 18:31N 57°42' E 011°57'0 0.0
2014-Jul-01 17:31N 57°42' E 011°57'0 0.0
2014-Jul-01 16:31N 57°42' E 011°57'0 0.0
2014-Jul-01 15:31N 57°42' E 011°57'0 0.0
2014-Jul-01 14:31N 57°42' E 011°57'2 2.4
2014-Jul-01 13:33N 57°41' E 011°53'7 7.3
2014-Jul-01 12:33N 57°39' E 011°40'2 1.7
2014-Jul-01 11:29N 57°40' E 011°40'0 0.0
2014-Jul-01 10:32N 57°40' E 011°40'2 1.8
2014-Jul-01 09:33N 57°41' E 011°43'7 7.2
2014-Jul-01 08:31N 57°42' E 011°57'0 0.0
2014-Jul-01 07:31N 57°42' E 011°57'0 0.0
2014-Jul-01 06:31N 57°42' E 011°57'0 0.0
2014-Jul-01 05:31N 57°42' E 011°57'0 0.0
2014-Jul-01 04:28N 57°42' E 011°57'0 0.0
2014-Jul-01 03:31N 57°42' E 011°57'0 0.0
2014-Jul-01 02:31N 57°42' E 011°57'0 0.0
2014-Jul-01 01:31N 57°42' E 011°57'0 0.0
2014-Jul-01 00:31N 57°42' E 011°57'0 0.0
2014-Jun-30 23:31N 57°42' E 011°57'0 0.0
2014-Jun-30 22:31N 57°42' E 011°57'0 0.0
2014-Jun-30 21:31N 57°42' E 011°57'0 0.0
2014-Jun-30 20:31N 57°42' E 011°57'0 0.0
2014-Jun-30 19:31N 57°42' E 011°57'0 0.0
2014-Jun-30 18:31N 57°42' E 011°57'0 0.0
2014-Jun-30 17:31N 57°42' E 011°57'0 0.0
2014-Jun-30 16:31N 57°42' E 011°57'0 0.0
2014-Jun-30 15:31N 57°42' E 011°57'0 0.2
2014-Jun-30 14:33N 57°42' E 011°57'  
Track history (hours):
 
Tides and Currents Weather Stations Pressure Air Temp Water Temp Dewpoint Dewpoint Depression Visibility Wind Speed Wind Dir Waves Ship Positions

Lode

Last reported at 2014-Jul-09 07:23 UTC. Time now 2014-Aug-28 03:24 UTC.
Position N 58°41' E 016°19'.
Warning: this ship's position is 49 days out of date.

Length 11 m.

Type: Dredging. MMSI: 265680440.

Date/timePositionNaut miles runAvg speedWind from/ knotsBaromVisibWave heightAir tempDewpointWater temp
2014-Jul-09 07:23N 58°41' E 016°19'14838.9
2014-Jul-09 03:33N 57°44' E 011°59'1 0.8
2014-Jul-09 02:33N 57°43' E 011°58'0 0.0
2014-Jul-09 01:33N 57°43' E 011°58'0 0.0
2014-Jul-09 00:33N 57°43' E 011°58'0 0.0
2014-Jul-08 23:33N 57°43' E 011°58'0 0.0
2014-Jul-08 22:33N 57°43' E 011°58'0 0.0
2014-Jul-08 21:33N 57°43' E 011°58'0 0.0
2014-Jul-08 20:30N 57°43' E 011°58'0 0.0
2014-Jul-08 19:33N 57°43' E 011°58'0 0.0
2014-Jul-08 18:33N 57°43' E 011°58'0 0.1
2014-Jul-08 17:33N 57°43' E 011°57'0 0.0
2014-Jul-08 16:33N 57°43' E 011°57'1 0.8
2014-Jul-08 15:33N 57°42' E 011°57'0 0.2
2014-Jul-08 14:33N 57°42' E 011°56'9 9.1
2014-Jul-08 13:33N 57°40' E 011°40'2 1.8
2014-Jul-08 12:33N 57°39' E 011°41'9 8.9
2014-Jul-08 11:34N 57°42' E 011°57'0 0.0
2014-Jul-08 10:34N 57°42' E 011°57'0 0.0
2014-Jul-08 09:34N 57°42' E 011°57'0 0.0
2014-Jul-08 08:31N 57°42' E 011°57'0 0.0
2014-Jul-08 07:34N 57°42' E 011°57'0 0.0
2014-Jul-08 06:31N 57°42' E 011°57'0 0.0
2014-Jul-08 05:31N 57°42' E 011°57'0 0.0
2014-Jul-08 04:31N 57°42' E 011°57'0 0.0
2014-Jul-08 03:28N 57°42' E 011°57'0 0.0
2014-Jul-08 02:28N 57°42' E 011°57'0 0.0
2014-Jul-08 01:31N 57°42' E 011°57'0 0.0
2014-Jul-08 00:31N 57°42' E 011°57'0 0.0
2014-Jul-07 23:31N 57°42' E 011°57'0 0.0
2014-Jul-07 22:25N 57°42' E 011°57'0 0.0
2014-Jul-07 21:31N 57°42' E 011°57'0 0.0
2014-Jul-07 20:31N 57°42' E 011°57'0 0.0
2014-Jul-07 19:31N 57°42' E 011°57'0 0.0
2014-Jul-07 18:31N 57°42' E 011°57'0 0.0
2014-Jul-07 17:31N 57°42' E 011°57'0 0.0
2014-Jul-07 16:31N 57°42' E 011°57'0 0.0
2014-Jul-07 15:31N 57°42' E 011°57'0 0.0
2014-Jul-07 14:31N 57°42' E 011°57'0 0.0
2014-Jul-07 13:31N 57°42' E 011°57'0 0.0
2014-Jul-07 12:31N 57°42' E 011°57'0 0.0
2014-Jul-07 11:33N 57°42' E 011°57'5 5.5
2014-Jul-07 10:33N 57°41' E 011°47'3 3.2
2014-Jul-07 09:33N 57°41' E 011°41'5 4.9
2014-Jul-07 08:33N 57°41' E 011°50'4 3.6
2014-Jul-07 07:32N 57°42' E 011°57'0 0.0
2014-Jul-07 06:32N 57°42' E 011°57'0 0.0
2014-Jul-07 05:32N 57°42' E 011°57'0 0.0
2014-Jul-07 04:32N 57°42' E 011°57'0 0.0
2014-Jul-07 03:29N 57°42' E 011°57'0 0.0
2014-Jul-07 02:32N 57°42' E 011°57'0 0.0
2014-Jul-07 01:32N 57°42' E 011°57'0 0.0
2014-Jul-07 00:32N 57°42' E 011°57'0 0.0
2014-Jul-06 23:29N 57°42' E 011°57'0 0.0
2014-Jul-06 22:32N 57°42' E 011°57'0 0.0
2014-Jul-06 21:32N 57°42' E 011°57'0 0.0
2014-Jul-06 20:32N 57°42' E 011°57'0 0.0
2014-Jul-06 19:32N 57°42' E 011°57'0 0.0
2014-Jul-06 18:32N 57°42' E 011°57'0 0.0
2014-Jul-06 17:32N 57°42' E 011°57'0 0.0
2014-Jul-06 16:32N 57°42' E 011°57'0 0.0
2014-Jul-06 15:26N 57°42' E 011°57'0 0.0
2014-Jul-06 14:32N 57°42' E 011°57'0 0.0
2014-Jul-06 13:32N 57°42' E 011°57'0 0.0
2014-Jul-06 12:32N 57°42' E 011°57'0 0.0
2014-Jul-06 11:32N 57°42' E 011°57'0 0.0
2014-Jul-06 10:32N 57°42' E 011°57'0 0.0
2014-Jul-06 09:32N 57°42' E 011°57'0 0.0
2014-Jul-06 08:32N 57°42' E 011°57'0 0.0
2014-Jul-06 07:32N 57°42' E 011°57'0 0.0
2014-Jul-06 06:32N 57°42' E 011°57'0 0.0
2014-Jul-06 05:32N 57°42' E 011°57'0 0.0
2014-Jul-06 04:32N 57°42' E 011°57'0 0.0
2014-Jul-06 03:32N 57°42' E 011°57'0 0.0
2014-Jul-06 02:32N 57°42' E 011°57'0 0.0
2014-Jul-06 01:32N 57°42' E 011°57'0 0.0
2014-Jul-06 00:32N 57°42' E 011°57'0 0.0
2014-Jul-05 23:32N 57°42' E 011°57'0 0.0
2014-Jul-05 22:23N 57°42' E 011°57'0 0.0
2014-Jul-05 21:32N 57°42' E 011°57'0 0.0
2014-Jul-05 20:32N 57°42' E 011°57'0 0.0
2014-Jul-05 19:32N 57°42' E 011°57'0 0.0
2014-Jul-05 18:32N 57°42' E 011°57'0 0.0
2014-Jul-05 17:32N 57°42' E 011°57'0 0.0
2014-Jul-05 16:20N 57°42' E 011°57'0 0.0
2014-Jul-05 15:29N 57°42' E 011°57'0 0.0
2014-Jul-05 14:32N 57°42' E 011°57'0 0.0
2014-Jul-05 13:32N 57°42' E 011°57'0 0.0
2014-Jul-05 12:32N 57°42' E 011°57'0 0.0
2014-Jul-05 11:32N 57°42' E 011°57'0 0.0
2014-Jul-05 10:32N 57°42' E 011°57'0 0.0
2014-Jul-05 09:32N 57°42' E 011°57'0 0.0
2014-Jul-05 08:32N 57°42' E 011°57'0 0.0
2014-Jul-05 07:32N 57°42' E 011°57'0 0.0
2014-Jul-05 06:32N 57°42' E 011°57'0 0.0
2014-Jul-05 05:29N 57°42' E 011°57'0 0.0
2014-Jul-05 04:32N 57°42' E 011°57'0 0.0
2014-Jul-05 03:29N 57°42' E 011°57'0 0.0
2014-Jul-05 02:32N 57°42' E 011°57'0 0.0
2014-Jul-05 01:32N 57°42' E 011°57'0 0.0
2014-Jul-05 00:32N 57°42' E 011°57'0 0.0
2014-Jul-04 23:32N 57°42' E 011°57'0 0.0
2014-Jul-04 22:32N 57°42' E 011°57'0 0.0
2014-Jul-04 21:32N 57°42' E 011°57'0 0.0
2014-Jul-04 20:23N 57°42' E 011°57'0 0.0
2014-Jul-04 19:32N 57°42' E 011°57'0 0.0
2014-Jul-04 18:32N 57°42' E 011°57'0 0.0
2014-Jul-04 17:32N 57°42' E 011°57'0 0.0
2014-Jul-04 16:32N 57°42' E 011°57'0 0.0
2014-Jul-04 15:32N 57°42' E 011°57'0 0.0
2014-Jul-04 14:33N 57°42' E 011°57'0 0.0
2014-Jul-04 13:33N 57°42' E 011°57'0 0.0
2014-Jul-04 12:33N 57°42' E 011°57'0 0.0
2014-Jul-04 11:33N 57°42' E 011°57'0 0.0
2014-Jul-04 10:33N 57°42' E 011°57'0 0.0
2014-Jul-04 09:30N 57°42' E 011°57'0 0.0
2014-Jul-04 08:30N 57°42' E 011°57'0 0.0
2014-Jul-04 07:33N 57°42' E 011°57'0 0.0
2014-Jul-04 06:33N 57°42' E 011°57'0 0.0
2014-Jul-04 05:33N 57°42' E 011°57'0 0.0
2014-Jul-04 04:33N 57°42' E 011°57'0 0.0
2014-Jul-04 03:30N 57°42' E 011°57'0 0.0
2014-Jul-04 02:33N 57°42' E 011°57'0 0.0
2014-Jul-04 01:33N 57°42' E 011°57'0 0.0
2014-Jul-04 00:33N 57°42' E 011°57'0 0.0
2014-Jul-03 23:33N 57°42' E 011°57'0 0.0
2014-Jul-03 22:30N 57°42' E 011°57'0 0.0
2014-Jul-03 21:33N 57°42' E 011°57'0 0.0
2014-Jul-03 20:30N 57°42' E 011°57'0 0.0
2014-Jul-03 19:33N 57°42' E 011°57'0 0.0
2014-Jul-03 18:33N 57°42' E 011°57'0 0.0
2014-Jul-03 17:33N 57°42' E 011°57'0 0.0
2014-Jul-03 16:33N 57°42' E 011°57'0 0.0
2014-Jul-03 15:33N 57°42' E 011°57'0 0.0
2014-Jul-03 14:33N 57°42' E 011°57'0 0.0
2014-Jul-03 13:33N 57°42' E 011°57'0 0.0
2014-Jul-03 12:33N 57°42' E 011°57'0 0.2
2014-Jul-03 11:33N 57°42' E 011°57'1 0.8
2014-Jul-03 10:33N 57°43' E 011°58'1 0.8
2014-Jul-03 09:32N 57°42' E 011°57'0 0.0
2014-Jul-03 08:32N 57°42' E 011°57'0 0.0
2014-Jul-03 07:32N 57°42' E 011°57'0 0.0
2014-Jul-03 06:32N 57°42' E 011°57'0 0.0
2014-Jul-03 05:32N 57°42' E 011°57'0 0.0
2014-Jul-03 04:32N 57°42' E 011°57'0 0.0
2014-Jul-03 03:32N 57°42' E 011°57'0 0.0
2014-Jul-03 02:32N 57°42' E 011°57'0 0.0
2014-Jul-03 01:32N 57°42' E 011°57'0 0.0
2014-Jul-03 00:29N 57°42' E 011°57'0 0.0
2014-Jul-02 23:29N 57°42' E 011°57'0 0.0
2014-Jul-02 22:32N 57°42' E 011°57'0 0.0
2014-Jul-02 21:32N 57°42' E 011°57'0 0.0
2014-Jul-02 20:32N 57°42' E 011°57'0 0.0
2014-Jul-02 19:32N 57°42' E 011°57'0 0.0
2014-Jul-02 18:32N 57°42' E 011°57'0 0.0
2014-Jul-02 17:32N 57°42' E 011°57'0 0.0
2014-Jul-02 16:32N 57°42' E 011°57'0 0.0
2014-Jul-02 15:31N 57°42' E 011°57'0 0.0
2014-Jul-02 14:28N 57°42' E 011°57'0 0.0
2014-Jul-02 13:31N 57°42' E 011°57'0 0.0
2014-Jul-02 12:22N 57°42' E 011°57'0 0.0
2014-Jul-02 11:31N 57°42' E 011°57'0 0.0
2014-Jul-02 10:31N 57°42' E 011°57'0 0.0
2014-Jul-02 09:28N 57°42' E 011°57'0 0.0
2014-Jul-02 08:31N 57°42' E 011°57'0 0.0
2014-Jul-02 07:31N 57°42' E 011°57'0 0.0
2014-Jul-02 06:31N 57°42' E 011°57'0 0.0
2014-Jul-02 05:31N 57°42' E 011°57'0 0.0
2014-Jul-02 04:31N 57°42' E 011°57'0 0.0
2014-Jul-02 03:31N 57°42' E 011°57'0 0.0
2014-Jul-02 02:31N 57°42' E 011°57'0 0.0
2014-Jul-02 01:31N 57°42' E 011°57'0 0.0
2014-Jul-02 00:31N 57°42' E 011°57'0 0.0
2014-Jul-01 23:31N 57°42' E 011°57'0 0.0
2014-Jul-01 22:31N 57°42' E 011°57'0 0.0
2014-Jul-01 21:31N 57°42' E 011°57'0 0.0
2014-Jul-01 20:31N 57°42' E 011°57'0 0.0
2014-Jul-01 19:28N 57°42' E 011°57'0 0.0
2014-Jul-01 18:31N 57°42' E 011°57'0 0.0
2014-Jul-01 17:31N 57°42' E 011°57'0 0.0
2014-Jul-01 16:31N 57°42' E 011°57'0 0.0
2014-Jul-01 15:31N 57°42' E 011°57'0 0.0
2014-Jul-01 14:31N 57°42' E 011°57'2 2.4
2014-Jul-01 13:33N 57°41' E 011°53'7 7.3
2014-Jul-01 12:33N 57°39' E 011°40'2 1.7
2014-Jul-01 11:29N 57°40' E 011°40'0 0.0
2014-Jul-01 10:32N 57°40' E 011°40'2 1.8
2014-Jul-01 09:33N 57°41' E 011°43'7 7.2
2014-Jul-01 08:31N 57°42' E 011°57'0 0.0
2014-Jul-01 07:31N 57°42' E 011°57'0 0.0
2014-Jul-01 06:31N 57°42' E 011°57'0 0.0
2014-Jul-01 05:31N 57°42' E 011°57'0 0.0
2014-Jul-01 04:28N 57°42' E 011°57'0 0.0
2014-Jul-01 03:31N 57°42' E 011°57'0 0.0
2014-Jul-01 02:31N 57°42' E 011°57'0 0.0
2014-Jul-01 01:31N 57°42' E 011°57'0 0.0
2014-Jul-01 00:31N 57°42' E 011°57'0 0.0
2014-Jun-30 23:31N 57°42' E 011°57'0 0.0
2014-Jun-30 22:31N 57°42' E 011°57'0 0.0
2014-Jun-30 21:31N 57°42' E 011°57'0 0.0
2014-Jun-30 20:31N 57°42' E 011°57'0 0.0
2014-Jun-30 19:31N 57°42' E 011°57'0 0.0
2014-Jun-30 18:31N 57°42' E 011°57'0 0.0
2014-Jun-30 17:31N 57°42' E 011°57'0 0.0
2014-Jun-30 16:31N 57°42' E 011°57'0 0.0
2014-Jun-30 15:31N 57°42' E 011°57'0 0.2
2014-Jun-30 14:33N 57°42' E 011°57'  

Dump ship's entire track history